Time;durP1;ratioP1;P1;durP2;ratioP2;P2;SDS_P1;SDS_P2;PMS_P1;PMS_P2;Temp;Humidity;BMP_temperature;BMP_pressure;BME280_temperature;BME280_humidity;BME280_pressure;Samples;Min_cycle;Max_cycle;Signal;HPM_P1;HPM_P2
2023/07/31 00:00:53;;;;;;;705.63;643.78;;;;;;;;;;5059256;28;20961;-65
2023/07/31 00:03:20;;;;;;;696.65;634.88;;;;;;;;;;5066746;28;20959;-65
2023/07/31 00:05:48;;;;;;;4.85;1.35;;;;;;;;;;5062965;28;20478;-64
2023/07/31 00:08:15;;;;;;;3.38;1.73;;;;;;;;;;5066046;28;20443;-65
2023/07/31 00:10:42;;;;;;;1.45;1.35;;;;;;;;;;5064393;28;20459;-65
2023/07/31 00:13:11;;;;;;;2.15;1.17;;;;;;;;;;5061255;28;20513;-65
2023/07/31 00:15:42;;;;;;;2.47;1.40;;;;;;;;;;5056321;28;20912;-65
2023/07/31 00:18:12;;;;;;;4.57;1.30;;;;;;;;;;5056117;28;20435;-65
2023/07/31 00:20:39;;;;;;;1.93;1.10;;;;;;;;;;5065147;28;20518;-65
2023/07/31 00:23:06;;;;;;;1.90;1.07;;;;;;;;;;5055798;28;20441;-65
2023/07/31 00:25:33;;;;;;;3.80;1.30;;;;;;;;;;5063277;28;20502;-66
2023/07/31 00:28:00;;;;;;;3.27;1.30;;;;;;;;;;5067286;28;20833;-66
2023/07/31 00:30:28;;;;;;;1.85;1.30;;;;;;;;;;5061226;28;20579;-65
2023/07/31 00:32:55;;;;;;;3.03;1.47;;;;;;;;;;5064935;28;20475;-65
2023/07/31 00:35:22;;;;;;;1.73;1.30;;;;;;;;;;5064080;28;20906;-65
2023/07/31 00:37:49;;;;;;;3.13;1.35;;;;;;;;;;5046239;28;20560;-65
2023/07/31 00:40:16;;;;;;;2.47;1.02;;;;;;;;;;5064286;28;20427;-65
2023/07/31 00:42:44;;;;;;;3.55;1.50;;;;;;;;;;5060457;28;20524;-65
2023/07/31 00:45:11;;;;;;;3.65;1.33;;;;;;;;;;5068055;28;21156;-66
2023/07/31 00:47:39;;;;;;;3.13;1.10;;;;;;;;;;5061574;28;20553;-65
2023/07/31 00:50:07;;;;;;;8.55;7.22;;;;;;;;;;5062733;28;20430;-66
2023/07/31 00:52:34;;;;;;;24.42;22.73;;;;;;;;;;5055166;28;20548;-65
2023/07/31 00:55:01;;;;;;;116.80;107.63;;;;;;;;;;5068317;28;20427;-66
2023/07/31 00:57:29;;;;;;;2.00;1.40;;;;;;;;;;5064882;28;20748;-66
2023/07/31 00:59:56;;;;;;;1.80;1.30;;;;;;;;;;5064698;28;20436;-66
2023/07/31 01:02:23;;;;;;;5.25;1.50;;;;;;;;;;5056132;28;20431;-67
2023/07/31 01:04:50;;;;;;;64.32;59.47;;;;;;;;;;5055773;28;20455;-66
2023/07/31 01:07:36;;;;;;;252.80;232.43;;;;;;;;;;5054360;28;20934;-66
2023/07/31 01:10:07;;;;;;;4.65;1.48;;;;;;;;;;5050526;28;20452;-65
2023/07/31 01:12:35;;;;;;;2.42;1.30;;;;;;;;;;5057020;28;20444;-66
2023/07/31 01:15:06;;;;;;;3.08;1.60;;;;;;;;;;5054516;28;20433;-65
2023/07/31 01:17:33;;;;;;;2.35;1.30;;;;;;;;;;5053885;28;20429;-65
2023/07/31 01:20:03;;;;;;;2.05;1.20;;;;;;;;;;5059532;28;20485;-66
2023/07/31 01:22:40;;;;;;;2.92;1.40;;;;;;;;;;5065822;28;20502;-66
2023/07/31 01:25:30;;;;;;;8.20;7.20;;;;;;;;;;5057652;28;20465;-65
2023/07/31 01:28:03;;;;;;;3.72;1.45;;;;;;;;;;5062501;28;20982;-65
2023/07/31 01:30:37;;;;;;;2.50;1.38;;;;;;;;;;5060939;28;20435;-66
2023/07/31 01:33:07;;;;;;;3.05;1.30;;;;;;;;;;5063647;28;20430;-65
2023/07/31 01:35:35;;;;;;;6.18;5.50;;;;;;;;;;5058311;28;20429;-65
2023/07/31 01:38:02;;;;;;;36.78;34.28;;;;;;;;;;5063836;28;20435;-65
2023/07/31 01:40:29;;;;;;;3.63;3.33;;;;;;;;;;5063143;28;20427;-65
2023/07/31 01:42:56;;;;;;;3.58;1.45;;;;;;;;;;5073696;28;20449;-66
2023/07/31 01:45:27;;;;;;;3.70;1.30;;;;;;;;;;5060802;28;20440;-67
2023/07/31 01:47:57;;;;;;;1.60;1.20;;;;;;;;;;5064931;28;20434;-65
2023/07/31 01:50:24;;;;;;;2.65;1.35;;;;;;;;;;5061735;28;20429;-65
2023/07/31 01:52:54;;;;;;;4.55;1.55;;;;;;;;;;5065698;28;20944;-65
2023/07/31 01:55:21;;;;;;;3.63;2.00;;;;;;;;;;5057000;28;20432;-65
2023/07/31 01:57:48;;;;;;;5.85;1.73;;;;;;;;;;5057587;28;21015;-66
2023/07/31 02:00:15;;;;;;;3.88;1.63;;;;;;;;;;5059102;28;20430;-65
2023/07/31 02:02:45;;;;;;;1.92;1.42;;;;;;;;;;5064054;28;20839;-66
2023/07/31 02:05:13;;;;;;;60.58;56.15;;;;;;;;;;5062689;28;20427;-65
2023/07/31 02:07:40;;;;;;;196.52;180.98;;;;;;;;;;5063478;28;20455;-65
2023/07/31 02:10:07;;;;;;;110.15;102.35;;;;;;;;;;5057560;28;20427;-65
2023/07/31 02:12:34;;;;;;;3.72;1.63;;;;;;;;;;5059330;28;20483;-66
2023/07/31 02:15:02;;;;;;;2.35;1.70;;;;;;;;;;5056973;28;20590;-66
2023/07/31 02:17:29;;;;;;;2.80;1.50;;;;;;;;;;5060532;28;20429;-66
2023/07/31 02:19:56;;;;;;;2.67;1.40;;;;;;;;;;5065984;28;20913;-66
2023/07/31 02:22:23;;;;;;;3.83;1.80;;;;;;;;;;5059569;28;20437;-66
2023/07/31 02:24:54;;;;;;;3.47;1.40;;;;;;;;;;5059949;28;20459;-65
2023/07/31 02:27:27;;;;;;;4.63;1.45;;;;;;;;;;5061163;28;20517;-66
2023/07/31 02:29:55;;;;;;;4.28;1.45;;;;;;;;;;5059773;28;20435;-66
2023/07/31 02:32:22;;;;;;;3.65;1.52;;;;;;;;;;5064446;28;20487;-66
2023/07/31 02:34:49;;;;;;;4.63;1.48;;;;;;;;;;5067288;28;20484;-66
2023/07/31 02:37:16;;;;;;;4.07;1.70;;;;;;;;;;5058915;28;20519;-66
2023/07/31 02:39:43;;;;;;;3.95;1.58;;;;;;;;;;5057941;28;20439;-65
2023/07/31 02:42:10;;;;;;;2.40;1.48;;;;;;;;;;5064660;28;20427;-66
2023/07/31 02:44:38;;;;;;;6.13;2.00;;;;;;;;;;5058989;28;20473;-66
2023/07/31 02:47:05;;;;;;;5.40;1.48;;;;;;;;;;5063402;28;20427;-66
2023/07/31 02:49:32;;;;;;;5.32;1.48;;;;;;;;;;5055369;28;20893;-65
2023/07/31 02:51:59;;;;;;;3.63;1.55;;;;;;;;;;5055652;28;20429;-64
2023/07/31 02:54:27;;;;;;;5.22;1.65;;;;;;;;;;5061174;28;20455;-64
2023/07/31 02:56:54;;;;;;;6.25;1.75;;;;;;;;;;5063026;28;20477;-64
2023/07/31 02:59:21;;;;;;;3.58;1.45;;;;;;;;;;5058596;28;21078;-64
2023/07/31 03:01:48;;;;;;;5.53;1.70;;;;;;;;;;5055954;28;20433;-67
2023/07/31 03:04:15;;;;;;;5.85;1.60;;;;;;;;;;5051877;28;20552;-67
2023/07/31 03:06:45;;;;;;;3.28;1.38;;;;;;;;;;5063810;28;20497;-67
2023/07/31 03:09:12;;;;;;;3.03;1.40;;;;;;;;;;5060383;28;20511;-65
2023/07/31 03:11:39;;;;;;;4.82;1.60;;;;;;;;;;5061640;28;20427;-67
2023/07/31 03:14:06;;;;;;;6.67;1.60;;;;;;;;;;5056927;28;20429;-68
2023/07/31 03:16:36;;;;;;;3.30;2.10;;;;;;;;;;5077703;28;20583;-67
2023/07/31 03:19:04;;;;;;;5.88;1.70;;;;;;;;;;5054087;28;20512;-67
2023/07/31 03:21:31;;;;;;;2.13;1.17;;;;;;;;;;5057489;28;20483;-68
2023/07/31 03:23:59;;;;;;;12.85;1.80;;;;;;;;;;5055838;28;20486;-67
2023/07/31 03:26:29;;;;;;;3.83;1.52;;;;;;;;;;5062279;28;20491;-64
2023/07/31 03:28:56;;;;;;;6.03;1.70;;;;;;;;;;5049156;28;20555;-65
2023/07/31 03:31:24;;;;;;;2.85;1.50;;;;;;;;;;5054873;28;21006;-65
2023/07/31 03:33:51;;;;;;;3.87;1.40;;;;;;;;;;5061569;28;20423;-65
2023/07/31 03:36:18;;;;;;;3.70;2.13;;;;;;;;;;5058134;28;20506;-65
2023/07/31 03:38:46;;;;;;;6.37;1.97;;;;;;;;;;5057826;28;20843;-67
2023/07/31 03:41:13;;;;;;;3.63;1.50;;;;;;;;;;5060228;28;20439;-67
2023/07/31 03:43:40;;;;;;;4.00;1.70;;;;;;;;;;5061984;28;20464;-65
2023/07/31 03:46:08;;;;;;;49.70;46.17;;;;;;;;;;5060136;28;20444;-65
2023/07/31 03:48:35;;;;;;;5.73;5.23;;;;;;;;;;5062867;28;20514;-65
2023/07/31 03:51:02;;;;;;;4.57;1.70;;;;;;;;;;5065112;28;20444;-66
2023/07/31 03:53:29;;;;;;;3.38;1.77;;;;;;;;;;5052911;28;20454;-66
2023/07/31 03:55:56;;;;;;;7.83;2.03;;;;;;;;;;5062111;28;20423;-66
2023/07/31 03:58:23;;;;;;;3.23;1.60;;;;;;;;;;5064533;28;20463;-65
2023/07/31 04:00:54;;;;;;;5.03;1.80;;;;;;;;;;5066607;28;20431;-65
2023/07/31 04:03:21;;;;;;;3.40;1.67;;;;;;;;;;5054799;28;20467;-66
2023/07/31 04:05:48;;;;;;;4.60;1.73;;;;;;;;;;5058072;28;20464;-66
2023/07/31 04:08:15;;;;;;;3.83;1.73;;;;;;;;;;5064005;28;20433;-66
2023/07/31 04:10:42;;;;;;;4.15;1.70;;;;;;;;;;5051031;28;20437;-65
2023/07/31 04:13:10;;;;;;;4.40;1.77;;;;;;;;;;5059348;28;20782;-66
2023/07/31 04:15:37;;;;;;;3.80;1.77;;;;;;;;;;5068166;28;20435;-65
2023/07/31 04:18:05;;;;;;;7.18;1.70;;;;;;;;;;5069579;28;20944;-66
2023/07/31 04:20:33;;;;;;;3.95;1.50;;;;;;;;;;5055582;28;20529;-65
2023/07/31 04:23:00;;;;;;;5.25;1.75;;;;;;;;;;5061091;28;20933;-65
2023/07/31 04:25:27;;;;;;;1.85;1.50;;;;;;;;;;5069341;28;20427;-65
2023/07/31 04:27:55;;;;;;;4.95;1.77;;;;;;;;;;5054598;28;20531;-65
2023/07/31 04:30:23;;;;;;;2.70;1.60;;;;;;;;;;5061235;28;20436;-65
2023/07/31 04:32:50;;;;;;;4.67;1.80;;;;;;;;;;5053668;28;20475;-65
2023/07/31 04:35:20;;;;;;;7.77;1.87;;;;;;;;;;5066876;28;20435;-66
2023/07/31 04:37:48;;;;;;;2.88;1.58;;;;;;;;;;5060591;28;20577;-65
2023/07/31 04:40:19;;;;;;;5.30;1.80;;;;;;;;;;5068575;28;20426;-66
2023/07/31 04:42:46;;;;;;;9.27;2.40;;;;;;;;;;5058739;28;20431;-65
2023/07/31 04:45:18;;;;;;;3.80;1.70;;;;;;;;;;5057995;28;20808;-65
2023/07/31 04:47:45;;;;;;;8.13;1.83;;;;;;;;;;5057483;28;20493;-66
2023/07/31 04:50:12;;;;;;;3.63;1.60;;;;;;;;;;5056728;28;20940;-65
2023/07/31 04:52:40;;;;;;;4.82;1.80;;;;;;;;;;5061754;28;20432;-65
2023/07/31 04:55:07;;;;;;;4.82;1.75;;;;;;;;;;5057360;28;20485;-65
2023/07/31 04:57:34;;;;;;;4.38;1.77;;;;;;;;;;5060992;28;20482;-65
2023/07/31 05:00:04;;;;;;;2.53;1.48;;;;;;;;;;5064820;28;20482;-65
2023/07/31 05:02:32;;;;;;;5.05;1.95;;;;;;;;;;5052343;28;20437;-66
2023/07/31 05:04:59;;;;;;;3.05;1.60;;;;;;;;;;5059338;28;20439;-66
2023/07/31 05:07:26;;;;;;;3.15;1.73;;;;;;;;;;5060549;28;20433;-65
2023/07/31 05:09:53;;;;;;;4.35;1.58;;;;;;;;;;5064505;28;20431;-66
2023/07/31 05:12:24;;;;;;;4.78;1.83;;;;;;;;;;5062245;28;20429;-66
2023/07/31 05:14:51;;;;;;;3.17;1.70;;;;;;;;;;5060902;28;20481;-66
2023/07/31 05:17:19;;;;;;;5.60;1.77;;;;;;;;;;5060531;28;20429;-66
2023/07/31 05:19:46;;;;;;;3.72;1.75;;;;;;;;;;5064562;28;20485;-66
2023/07/31 05:22:13;;;;;;;3.85;1.80;;;;;;;;;;5064075;28;20470;-66
2023/07/31 05:24:40;;;;;;;2.70;1.60;;;;;;;;;;5059750;28;20427;-66
2023/07/31 05:27:08;;;;;;;3.97;3.00;;;;;;;;;;5063622;28;20439;-66
2023/07/31 05:29:35;;;;;;;14.65;13.43;;;;;;;;;;5063960;28;20471;-67
2023/07/31 05:32:02;;;;;;;2.63;2.42;;;;;;;;;;5060793;28;20508;-67
2023/07/31 05:34:29;;;;;;;30.60;28.30;;;;;;;;;;5057279;28;20441;-67
2023/07/31 05:36:56;;;;;;;3.00;1.70;;;;;;;;;;5059301;28;20518;-67
2023/07/31 05:39:24;;;;;;;8.10;1.70;;;;;;;;;;5060790;28;20431;-66
2023/07/31 05:41:51;;;;;;;4.88;1.55;;;;;;;;;;5061220;28;20864;-68
2023/07/31 05:44:18;;;;;;;3.00;1.60;;;;;;;;;;5058115;28;20445;-67
2023/07/31 05:46:45;;;;;;;4.17;1.90;;;;;;;;;;5063882;28;20435;-67
2023/07/31 05:49:12;;;;;;;5.30;2.27;;;;;;;;;;5057440;28;20519;-67
2023/07/31 05:51:40;;;;;;;3.60;1.97;;;;;;;;;;5056534;28;20432;-67
2023/07/31 05:54:07;;;;;;;2.77;2.30;;;;;;;;;;5059994;28;20440;-67
2023/07/31 05:56:34;;;;;;;4.75;1.67;;;;;;;;;;5053426;28;20439;-67
2023/07/31 05:59:02;;;;;;;4.28;2.53;;;;;;;;;;5077377;28;21013;-66
2023/07/31 06:01:30;;;;;;;4.22;2.33;;;;;;;;;;5055889;28;20428;-66
2023/07/31 06:03:57;;;;;;;26.33;24.35;;;;;;;;;;5057477;28;20481;-68
2023/07/31 06:06:24;;;;;;;3.08;1.80;;;;;;;;;;5057496;28;20429;-67
2023/07/31 06:08:53;;;;;;;29.60;27.65;;;;;;;;;;5061452;28;20435;-66
2023/07/31 06:11:24;;;;;;;44.53;41.35;;;;;;;;;;5054149;28;21217;-66
2023/07/31 06:13:51;;;;;;;339.10;308.85;;;;;;;;;;5052621;28;20425;-66
2023/07/31 06:16:18;;;;;;;584.55;530.50;;;;;;;;;;5058207;28;20917;-66
2023/07/31 06:18:49;;;;;;;405.52;366.90;;;;;;;;;;5057342;28;20508;-66
2023/07/31 06:21:16;;;;;;;583.63;529.00;;;;;;;;;;5077032;28;20430;-68
2023/07/31 06:23:43;;;;;;;503.30;453.90;;;;;;;;;;5057215;28;20499;-67
2023/07/31 06:26:10;;;;;;;491.17;442.75;;;;;;;;;;5055896;28;20955;-68
2023/07/31 06:28:40;;;;;;;570.33;515.85;;;;;;;;;;5058569;28;20419;-66
2023/07/31 06:31:07;;;;;;;523.65;472.48;;;;;;;;;;5059002;28;20907;-67
2023/07/31 06:33:35;;;;;;;450.42;405.73;;;;;;;;;;5061403;28;20423;-66
2023/07/31 06:36:08;;;;;;;580.70;525.70;;;;;;;;;;5058735;28;20852;-66
2023/07/31 06:38:37;;;;;;;394.88;357.40;;;;;;;;;;5063095;28;20431;-65
2023/07/31 06:41:13;;;;;;;543.38;491.10;;;;;;;;;;5058244;28;20477;-66
2023/07/31 06:43:42;;;;;;;604.58;548.25;;;;;;;;;;5060888;28;20423;-67
2023/07/31 06:46:10;;;;;;;837.25;763.42;;;;;;;;;;5055396;28;20432;-67
2023/07/31 06:48:38;;;;;;;552.92;501.08;;;;;;;;;;5064672;28;20432;-68
2023/07/31 06:51:05;;;;;;;839.97;765.42;;;;;;;;;;5059866;28;20432;-67
2023/07/31 06:53:34;;;;;;;857.58;779.47;;;;;;;;;;5055922;28;20524;-66
2023/07/31 06:56:01;;;;;;;633.70;576.08;;;;;;;;;;5057841;28;20558;-66
2023/07/31 06:58:29;;;;;;;444.38;402.52;;;;;;;;;;5058791;28;20524;-66
2023/07/31 07:00:56;;;;;;;479.98;433.95;;;;;;;;;;5058641;28;20434;-67
2023/07/31 07:03:23;;;;;;;475.52;429.95;;;;;;;;;;5059052;28;20431;-67
2023/07/31 07:05:50;;;;;;;455.10;411.77;;;;;;;;;;5058901;28;20518;-66
2023/07/31 07:08:17;;;;;;;703.22;640.72;;;;;;;;;;5058970;28;21243;-66
2023/07/31 07:10:54;;;;;;;114.28;105.63;;;;;;;;;;5066129;28;20426;-67
2023/07/31 07:13:22;;;;;;;73.00;67.90;;;;;;;;;;5061678;28;20532;-66
2023/07/31 07:15:52;;;;;;;8.57;1.92;;;;;;;;;;5062880;28;20431;-66
2023/07/31 07:18:21;;;;;;;5.10;1.88;;;;;;;;;;5079131;28;20429;-66
2023/07/31 07:20:50;;;;;;;3.13;1.70;;;;;;;;;;5062802;28;20429;-67
2023/07/31 07:23:17;;;;;;;1.75;1.58;;;;;;;;;;5063789;28;20515;-67
2023/07/31 07:25:48;;;;;;;5.32;1.80;;;;;;;;;;5063366;28;20442;-66
2023/07/31 07:28:15;;;;;;;530.50;481.63;;;;;;;;;;5054491;28;20429;-67
2023/07/31 07:30:46;;;;;;;529.50;480.30;;;;;;;;;;5062649;28;20440;-66
2023/07/31 07:33:16;;;;;;;393.38;357.42;;;;;;;;;;5064189;28;20427;-67
2023/07/31 07:35:46;;;;;;;86.82;80.28;;;;;;;;;;5059712;28;20938;-66
2023/07/31 07:38:15;;;;;;;323.20;294.65;;;;;;;;;;5058535;28;20427;-68
2023/07/31 07:40:42;;;;;;;396.83;360.73;;;;;;;;;;5059569;28;20508;-67
2023/07/31 07:43:09;;;;;;;558.42;510.20;;;;;;;;;;5057495;28;20490;-68
2023/07/31 07:45:36;;;;;;;10.68;9.48;;;;;;;;;;5056304;28;20431;-66
2023/07/31 07:48:03;;;;;;;6.13;2.13;;;;;;;;;;5060259;28;21082;-66
2023/07/31 07:50:32;;;;;;;3.80;1.40;;;;;;;;;;5057913;28;20435;-66
2023/07/31 07:52:59;;;;;;;6.55;4.63;;;;;;;;;;5061780;28;21089;-68
2023/07/31 07:55:28;;;;;;;9.38;8.75;;;;;;;;;;5061562;28;20462;-67
2023/07/31 07:57:58;;;;;;;138.77;128.30;;;;;;;;;;5055497;28;20424;-66
2023/07/31 08:00:25;;;;;;;3.33;1.85;;;;;;;;;;5054094;28;20429;-68
2023/07/31 08:02:52;;;;;;;3.15;1.98;;;;;;;;;;5051478;28;20454;-67
2023/07/31 08:05:19;;;;;;;5.10;2.63;;;;;;;;;;5059257;28;20447;-67
2023/07/31 08:07:47;;;;;;;9.52;8.55;;;;;;;;;;5057600;28;20459;-66
2023/07/31 08:10:14;;;;;;;3.20;2.20;;;;;;;;;;5061494;28;20467;-67
2023/07/31 08:12:41;;;;;;;7.72;7.13;;;;;;;;;;5058490;28;20819;-67
2023/07/31 08:15:08;;;;;;;19.27;17.80;;;;;;;;;;5061327;28;20433;-67
2023/07/31 08:17:38;;;;;;;1.90;1.27;;;;;;;;;;5061608;28;20446;-67
2023/07/31 08:20:06;;;;;;;5.05;3.15;;;;;;;;;;5055339;28;21002;-66
2023/07/31 08:22:33;;;;;;;3.38;3.00;;;;;;;;;;5057346;28;20499;-68
2023/07/31 08:25:01;;;;;;;4.30;1.87;;;;;;;;;;5057719;28;21439;-67
2023/07/31 08:27:30;;;;;;;2.08;1.60;;;;;;;;;;5058466;28;20523;-67
2023/07/31 08:29:58;;;;;;;4.93;2.25;;;;;;;;;;5051781;28;20444;-65
2023/07/31 08:32:25;;;;;;;2.80;1.50;;;;;;;;;;5053155;28;20466;-66
2023/07/31 08:34:52;;;;;;;3.30;1.73;;;;;;;;;;5058188;28;20431;-66
2023/07/31 08:37:19;;;;;;;5.35;4.35;;;;;;;;;;5058704;28;20437;-67
2023/07/31 08:39:47;;;;;;;353.95;323.35;;;;;;;;;;5052836;28;20433;-66
2023/07/31 08:42:14;;;;;;;2.20;1.67;;;;;;;;;;5053558;28;21159;-66
2023/07/31 08:44:41;;;;;;;1.90;1.67;;;;;;;;;;5052979;28;20447;-67
2023/07/31 08:47:09;;;;;;;2.90;1.83;;;;;;;;;;5056639;28;20489;-66
2023/07/31 08:49:37;;;;;;;2.08;1.77;;;;;;;;;;5063546;28;20485;-66
2023/07/31 08:52:05;;;;;;;3.47;1.80;;;;;;;;;;5055797;28;20432;-66
2023/07/31 08:54:33;;;;;;;2.37;1.50;;;;;;;;;;5055788;28;20510;-66
2023/07/31 08:57:00;;;;;;;2.33;1.80;;;;;;;;;;5062629;28;20431;-67
2023/07/31 08:59:32;;;;;;;2.22;1.63;;;;;;;;;;5056235;28;20438;-66
2023/07/31 09:02:08;;;;;;;3.80;1.70;;;;;;;;;;5057913;28;20419;-67
2023/07/31 09:04:35;;;;;;;4.60;1.87;;;;;;;;;;5060796;28;20432;-67
2023/07/31 09:07:04;;;;;;;3.78;2.00;;;;;;;;;;5057567;28;20533;-66
2023/07/31 09:09:32;;;;;;;3.78;1.85;;;;;;;;;;5060698;28;20434;-68
2023/07/31 09:11:59;;;;;;;4.40;2.17;;;;;;;;;;5056561;28;20431;-66
2023/07/31 09:14:27;;;;;;;2.60;1.67;;;;;;;;;;5054870;28;20432;-67
2023/07/31 09:16:54;;;;;;;6.63;2.00;;;;;;;;;;5055611;28;20995;-65
2023/07/31 09:19:27;;;;;;;4.13;1.50;;;;;;;;;;5055845;28;20451;-67
2023/07/31 09:21:55;;;;;;;3.50;1.50;;;;;;;;;;5062023;28;20524;-67
2023/07/31 09:24:26;;;;;;;4.00;2.15;;;;;;;;;;5054377;28;21175;-66
2023/07/31 09:26:55;;;;;;;2.60;1.75;;;;;;;;;;5057612;28;20470;-67
2023/07/31 09:29:23;;;;;;;2.33;1.73;;;;;;;;;;5057456;28;20435;-66
2023/07/31 09:31:52;;;;;;;3.40;1.88;;;;;;;;;;5061809;28;20466;-66
2023/07/31 09:34:19;;;;;;;2.50;1.67;;;;;;;;;;5068728;28;20429;-67
2023/07/31 09:36:48;;;;;;;2.95;1.90;;;;;;;;;;5064340;28;21235;-66
2023/07/31 09:39:16;;;;;;;2.53;1.67;;;;;;;;;;5052857;28;20598;-66
2023/07/31 09:41:45;;;;;;;5.40;1.80;;;;;;;;;;5056699;28;20576;-65
2023/07/31 09:44:12;;;;;;;3.05;2.03;;;;;;;;;;5052349;28;20433;-66
2023/07/31 09:46:40;;;;;;;2.70;2.03;;;;;;;;;;5058481;28;20463;-62
2023/07/31 09:49:11;;;;;;;3.03;1.70;;;;;;;;;;5056025;28;20498;-64
2023/07/31 09:51:39;;;;;;;4.38;1.70;;;;;;;;;;5061402;28;20926;-64
2023/07/31 09:54:10;;;;;;;5.15;2.22;;;;;;;;;;5058013;28;20966;-63
2023/07/31 09:56:42;;;;;;;3.40;2.00;;;;;;;;;;5061441;28;20905;-64
2023/07/31 09:59:11;;;;;;;4.15;1.70;;;;;;;;;;5057439;28;20517;-64
2023/07/31 10:01:40;;;;;;;3.42;2.05;;;;;;;;;;5055458;28;21030;-64
2023/07/31 10:04:08;;;;;;;7.80;2.00;;;;;;;;;;5057682;28;20435;-64
2023/07/31 10:06:36;;;;;;;2.80;2.10;;;;;;;;;;5051265;28;20526;-64
2023/07/31 10:09:06;;;;;;;3.17;1.90;;;;;;;;;;5058582;28;20511;-64
2023/07/31 10:11:36;;;;;;;3.50;1.80;;;;;;;;;;5058668;28;20478;-64
2023/07/31 10:14:05;;;;;;;3.58;2.00;;;;;;;;;;5059145;28;20897;-64
2023/07/31 10:16:33;;;;;;;3.28;2.28;;;;;;;;;;5059341;28;20432;-64
2023/07/31 10:19:00;;;;;;;2.95;1.80;;;;;;;;;;5058333;28;20469;-64
2023/07/31 10:21:28;;;;;;;3.13;2.00;;;;;;;;;;5058885;28;20458;-64
2023/07/31 10:23:56;;;;;;;3.40;1.85;;;;;;;;;;5054317;28;20561;-64
2023/07/31 10:26:23;;;;;;;4.70;1.90;;;;;;;;;;5056723;28;20466;-63
2023/07/31 10:28:53;;;;;;;19.35;2.22;;;;;;;;;;5058178;28;20981;-63
2023/07/31 10:31:20;;;;;;;3.53;1.80;;;;;;;;;;5057500;28;20443;-63
2023/07/31 10:33:50;;;;;;;5.38;2.30;;;;;;;;;;5060216;28;20431;-63
2023/07/31 10:36:21;;;;;;;391.90;356.50;;;;;;;;;;5059030;28;20425;-63
2023/07/31 10:38:51;;;;;;;432.23;394.25;;;;;;;;;;5051901;28;20427;-64
2023/07/31 10:41:18;;;;;;;97.63;88.82;;;;;;;;;;5060602;28;20437;-63
2023/07/31 10:43:48;;;;;;;5.60;3.03;;;;;;;;;;5057638;28;21207;-63
2023/07/31 10:46:15;;;;;;;3.10;1.92;;;;;;;;;;5058742;28;20951;-64
2023/07/31 10:48:43;;;;;;;177.27;160.77;;;;;;;;;;5064907;28;21105;-63
2023/07/31 10:51:13;;;;;;;7.40;5.82;;;;;;;;;;5063053;28;20427;-63
2023/07/31 10:53:41;;;;;;;4.82;4.38;;;;;;;;;;5067181;28;20779;-63
2023/07/31 10:56:12;;;;;;;4.40;2.33;;;;;;;;;;5082370;28;20535;-63
2023/07/31 10:58:42;;;;;;;3.10;1.75;;;;;;;;;;5056138;28;20426;-63
2023/07/31 11:01:12;;;;;;;5.88;2.13;;;;;;;;;;5063953;28;20899;-63
2023/07/31 11:03:45;;;;;;;4.05;2.20;;;;;;;;;;5064887;28;20425;-64
2023/07/31 11:06:13;;;;;;;6.80;1.90;;;;;;;;;;5059383;28;20782;-64
2023/07/31 11:08:54;;;;;;;4.65;2.08;;;;;;;;;;5053907;28;20444;-63
2023/07/31 11:11:21;;;;;;;5.30;2.17;;;;;;;;;;5047789;28;21456;-63
2023/07/31 11:13:54;;;;;;;2.47;1.92;;;;;;;;;;5056022;28;20432;-63
2023/07/31 11:16:42;;;;;;;2.70;1.90;;;;;;;;;;5064309;28;20435;-63
2023/07/31 11:19:12;;;;;;;4.57;1.92;;;;;;;;;;5059485;28;20435;-63
2023/07/31 11:21:39;;;;;;;2.97;1.85;;;;;;;;;;5055358;28;20519;-63
2023/07/31 11:24:07;;;;;;;3.25;1.83;;;;;;;;;;5053133;28;20447;-63
2023/07/31 11:26:34;;;;;;;2.13;1.70;;;;;;;;;;5059151;28;20438;-63
2023/07/31 11:29:01;;;;;;;2.28;1.60;;;;;;;;;;5058263;28;20548;-64
2023/07/31 11:31:28;;;;;;;2.83;1.80;;;;;;;;;;5060710;28;20908;-63
2023/07/31 11:34:05;;;;;;;3.92;2.10;;;;;;;;;;5059118;28;20542;-63
2023/07/31 11:36:32;;;;;;;233.43;211.85;;;;;;;;;;5062215;28;20435;-64
2023/07/31 11:39:06;;;;;;;6.95;6.45;;;;;;;;;;5061096;28;20612;-63
2023/07/31 11:41:34;;;;;;;44.85;41.40;;;;;;;;;;5056607;28;20431;-63
2023/07/31 11:44:01;;;;;;;7.22;6.50;;;;;;;;;;5055614;28;20918;-63
2023/07/31 11:46:47;;;;;;;4.75;4.38;;;;;;;;;;5046562;28;20466;-63
2023/07/31 11:49:15;;;;;;;8.43;7.73;;;;;;;;;;5062158;28;20423;-59
2023/07/31 11:51:43;;;;;;;5.03;2.10;;;;;;;;;;5061416;28;20436;-59
2023/07/31 11:54:12;;;;;;;3.47;2.00;;;;;;;;;;5060900;28;20956;-58
2023/07/31 11:56:39;;;;;;;6.20;5.65;;;;;;;;;;5057225;28;20515;-68
2023/07/31 11:59:08;;;;;;;3.95;1.90;;;;;;;;;;5060369;28;20427;-63
2023/07/31 12:01:35;;;;;;;5.32;2.00;;;;;;;;;;5060492;28;20515;-63
2023/07/31 12:04:03;;;;;;;5.18;2.08;;;;;;;;;;5057485;28;20566;-63
2023/07/31 12:06:36;;;;;;;3.33;1.83;;;;;;;;;;5058815;28;20521;-65
2023/07/31 12:09:08;;;;;;;5.03;1.90;;;;;;;;;;5053009;28;21006;-64
2023/07/31 12:11:44;;;;;;;2.42;2.00;;;;;;;;;;5055949;28;20494;-64
2023/07/31 12:14:24;;;;;;;3.92;1.90;;;;;;;;;;5061159;28;20437;-65
2023/07/31 12:17:18;;;;;;;2.00;1.85;;;;;;;;;;5064644;28;20438;-64
2023/07/31 12:19:46;;;;;;;2.90;2.08;;;;;;;;;;5055551;28;20990;-64
2023/07/31 12:22:14;;;;;;;3.17;1.92;;;;;;;;;;5055920;28;20423;-64
2023/07/31 12:24:44;;;;;;;4.18;2.40;;;;;;;;;;5057045;28;20526;-64
2023/07/31 12:27:15;;;;;;;4.15;1.90;;;;;;;;;;5062772;28;20450;-64
2023/07/31 12:29:44;;;;;;;4.30;2.00;;;;;;;;;;5063736;28;20439;-64
2023/07/31 12:32:20;;;;;;;3.20;2.10;;;;;;;;;;5062046;28;21010;-65
2023/07/31 12:34:47;;;;;;;4.03;2.05;;;;;;;;;;5071520;28;20666;-64
2023/07/31 12:37:15;;;;;;;3.00;2.38;;;;;;;;;;5062796;28;21283;-65
2023/07/31 12:39:42;;;;;;;4.88;2.10;;;;;;;;;;5053272;28;20523;-65
2023/07/31 12:42:09;;;;;;;2.67;1.63;;;;;;;;;;5054289;28;20429;-64
2023/07/31 12:44:36;;;;;;;2.40;1.75;;;;;;;;;;5050784;28;20436;-64
2023/07/31 12:47:04;;;;;;;4.53;3.20;;;;;;;;;;5055669;28;20433;-65
2023/07/31 12:49:31;;;;;;;3.45;1.92;;;;;;;;;;5052468;28;20440;-65
2023/07/31 12:51:59;;;;;;;6.22;1.90;;;;;;;;;;5053817;28;20439;-65
2023/07/31 12:54:26;;;;;;;58.42;54.20;;;;;;;;;;5059574;28;20555;-64
2023/07/31 12:56:55;;;;;;;2.40;2.17;;;;;;;;;;5063150;28;20507;-64
2023/07/31 12:59:28;;;;;;;5.53;2.88;;;;;;;;;;5062501;28;20926;-64
2023/07/31 13:01:57;;;;;;;5.80;2.45;;;;;;;;;;5058814;28;20428;-64
2023/07/31 13:04:25;;;;;;;5.05;2.10;;;;;;;;;;5057681;28;20508;-64
2023/07/31 13:06:52;;;;;;;2.90;2.03;;;;;;;;;;5057635;28;21020;-64
2023/07/31 13:09:19;;;;;;;2.35;1.90;;;;;;;;;;5062729;28;20482;-64
2023/07/31 13:11:46;;;;;;;76.33;69.50;;;;;;;;;;5055088;28;20523;-65
2023/07/31 13:14:13;;;;;;;5.65;2.00;;;;;;;;;;5059982;28;20435;-64
2023/07/31 13:16:41;;;;;;;2.92;1.92;;;;;;;;;;5063383;28;20427;-64
2023/07/31 13:19:08;;;;;;;39.67;35.70;;;;;;;;;;5058903;28;20499;-64
2023/07/31 13:21:36;;;;;;;2.50;2.05;;;;;;;;;;5061611;28;20436;-64
2023/07/31 13:24:04;;;;;;;2.67;2.40;;;;;;;;;;5052728;28;21267;-64
2023/07/31 13:26:31;;;;;;;20.90;19.00;;;;;;;;;;5056719;28;20456;-64
2023/07/31 13:28:58;;;;;;;185.63;170.25;;;;;;;;;;5060557;28;20527;-64
2023/07/31 13:31:26;;;;;;;437.48;399.00;;;;;;;;;;5061151;28;20487;-66
2023/07/31 13:33:53;;;;;;;115.00;104.60;;;;;;;;;;5054862;28;20428;-64
2023/07/31 13:36:20;;;;;;;562.97;510.50;;;;;;;;;;5061502;28;20431;-64
2023/07/31 13:38:47;;;;;;;550.70;500.05;;;;;;;;;;5058000;28;20423;-64
2023/07/31 13:41:14;;;;;;;420.97;382.83;;;;;;;;;;5059205;28;20431;-63
2023/07/31 13:43:42;;;;;;;824.33;747.53;;;;;;;;;;5058497;28;20933;-64
2023/07/31 13:46:12;;;;;;;352.80;321.90;;;;;;;;;;5058662;28;20447;-64
2023/07/31 13:48:39;;;;;;;647.97;590.10;;;;;;;;;;5060071;28;20439;-64
2023/07/31 13:51:06;;;;;;;50.00;45.20;;;;;;;;;;5057203;28;20433;-64
2023/07/31 13:53:33;;;;;;;619.77;562.30;;;;;;;;;;5057795;28;20427;-64
2023/07/31 13:56:00;;;;;;;701.20;638.63;;;;;;;;;;5059773;28;20512;-63
2023/07/31 13:58:28;;;;;;;390.15;354.52;;;;;;;;;;5062290;28;20455;-64
2023/07/31 14:00:58;;;;;;;683.13;617.08;;;;;;;;;;5051977;28;20420;-64
2023/07/31 14:03:25;;;;;;;909.05;815.35;;;;;;;;;;5064864;28;20433;-64
2023/07/31 14:05:53;;;;;;;788.50;717.13;;;;;;;;;;5051404;28;20429;-64
2023/07/31 14:08:20;;;;;;;851.93;766.60;;;;;;;;;;5052404;28;20433;-63
2023/07/31 14:10:47;;;;;;;858.90;783.30;;;;;;;;;;5059648;28;20473;-63
2023/07/31 14:13:15;;;;;;;903.30;818.20;;;;;;;;;;5075317;28;20516;-64
2023/07/31 14:15:43;;;;;;;918.50;827.83;;;;;;;;;;5062089;28;20508;-63
2023/07/31 14:18:10;;;;;;;888.90;797.40;;;;;;;;;;5054666;28;20435;-64
2023/07/31 14:20:38;;;;;;;685.67;622.33;;;;;;;;;;5061388;28;20431;-64
2023/07/31 14:23:11;;;;;;;567.20;514.40;;;;;;;;;;5058771;28;20961;-63
2023/07/31 14:25:38;;;;;;;359.48;328.10;;;;;;;;;;5051598;28;20464;-64
2023/07/31 14:28:07;;;;;;;712.92;648.72;;;;;;;;;;5059069;28;20439;-64
2023/07/31 14:30:35;;;;;;;912.47;812.30;;;;;;;;;;5052606;28;20429;-64
2023/07/31 14:33:05;;;;;;;744.55;678.60;;;;;;;;;;5055863;28;20436;-63
2023/07/31 14:35:35;;;;;;;387.07;352.07;;;;;;;;;;5056393;28;21102;-64
2023/07/31 14:38:05;;;;;;;508.52;462.70;;;;;;;;;;5057963;28;20534;-64